Time;durP1;ratioP1;P1;durP2;ratioP2;P2;SDS_P1;SDS_P2;PMS_P1;PMS_P2;Temp;Humidity;BMP_temperature;BMP_pressure;BME280_temperature;BME280_humidity;BME280_pressure;Samples;Min_cycle;Max_cycle;Signal;HPM_P1;HPM_P2
2020/12/05 00:01:51;;;;;;;22.42;14.98;;;;;;;5.52;91.31;96884.16;5078932;28;20196;-65
2020/12/05 00:04:20;;;;;;;23.95;15.65;;;;;;;5.54;91.92;96881.34;5071988;28;20272;-65
2020/12/05 00:06:46;;;;;;;25.70;17.38;;;;;;;5.51;92.54;96874.44;5071931;28;20601;-65
2020/12/05 00:09:13;;;;;;;21.02;15.00;;;;;;;5.51;93.09;96884.25;5071896;28;20258;-66
2020/12/05 00:11:39;;;;;;;21.58;17.38;;;;;;;5.52;93.20;96894.81;5071545;28;20209;-66
2020/12/05 00:14:05;;;;;;;23.52;16.30;;;;;;;5.55;93.27;96893.72;5072248;28;20282;-66
2020/12/05 00:16:33;;;;;;;19.92;16.75;;;;;;;5.56;93.15;96885.59;5072050;28;20220;-66
2020/12/05 00:18:59;;;;;;;24.27;17.92;;;;;;;5.58;93.21;96883.63;5075570;28;20267;-65
2020/12/05 00:21:26;;;;;;;20.95;17.90;;;;;;;5.58;93.27;96893.47;5092649;28;20629;-66
2020/12/05 00:23:53;;;;;;;24.75;17.42;;;;;;;5.58;93.56;96896.97;5092343;28;20206;-66
2020/12/05 00:26:20;;;;;;;26.13;18.88;;;;;;;5.66;93.37;96904.38;5092294;28;20253;-66
2020/12/05 00:28:48;;;;;;;20.83;14.70;;;;;;;5.63;91.31;96918.81;5086630;28;20191;-66
2020/12/05 00:31:15;;;;;;;22.98;18.70;;;;;;;5.61;91.29;96920.75;5072057;28;20653;-66
2020/12/05 00:33:43;;;;;;;21.17;16.63;;;;;;;5.60;91.85;96916.38;5071907;28;20755;-67
2020/12/05 00:36:09;;;;;;;23.45;17.42;;;;;;;5.60;91.61;96921.72;5071390;28;20224;-66
2020/12/05 00:38:36;;;;;;;16.52;13.35;;;;;;;5.65;91.06;96934.69;5071586;28;20184;-66
2020/12/05 00:41:04;;;;;;;14.25;11.13;;;;;;;5.63;89.64;96937.50;5071496;28;20201;-65
2020/12/05 00:43:30;;;;;;;11.60;9.20;;;;;;;5.59;88.54;96946.72;5071774;28;20191;-66
2020/12/05 00:45:57;;;;;;;12.30;9.15;;;;;;;5.59;88.35;96937.88;5072002;28;20279;-66
2020/12/05 00:48:23;;;;;;;9.90;8.32;;;;;;;5.54;88.31;96951.59;5072169;28;20185;-66
2020/12/05 00:50:50;;;;;;;11.15;9.10;;;;;;;5.58;88.35;96950.34;5071650;28;20278;-66
2020/12/05 00:53:16;;;;;;;13.35;9.27;;;;;;;5.69;87.53;96951.31;5071371;28;20668;-65
2020/12/05 00:55:44;;;;;;;8.15;6.85;;;;;;;5.60;87.12;96966.25;5071654;28;20212;-67
2020/12/05 00:58:11;;;;;;;9.65;7.80;;;;;;;5.55;87.20;96963.09;5071464;28;20253;-67
2020/12/05 01:00:37;;;;;;;11.15;8.68;;;;;;;5.54;87.44;96964.94;5071888;28;20260;-65
2020/12/05 01:03:03;;;;;;;11.57;7.53;;;;;;;5.56;87.47;96971.00;5072041;28;20295;-65
2020/12/05 01:05:30;;;;;;;8.25;6.68;;;;;;;5.61;87.16;96971.47;5071532;28;20204;-65
2020/12/05 01:07:58;;;;;;;7.88;6.97;;;;;;;5.63;86.66;96982.88;5071569;28;20205;-65
2020/12/05 01:10:24;;;;;;;7.70;6.88;;;;;;;5.59;86.85;96976.09;5071535;28;20680;-65
2020/12/05 01:12:53;;;;;;;10.20;7.13;;;;;;;5.51;87.01;96989.19;5071824;28;20205;-66
2020/12/05 01:15:19;;;;;;;12.02;8.48;;;;;;;5.55;87.37;96984.47;5072651;28;20192;-64
2020/12/05 01:17:49;;;;;;;16.73;14.00;;;;;;;5.50;89.71;96995.50;5071461;28;20204;-65
2020/12/05 01:20:15;;;;;;;17.92;13.95;;;;;;;5.59;89.63;96989.44;5071691;28;20707;-66
2020/12/05 01:22:41;;;;;;;18.60;14.40;;;;;;;5.61;89.84;96984.81;5071616;28;20190;-65
2020/12/05 01:25:09;;;;;;;20.45;15.07;;;;;;;5.47;90.07;96993.06;5071593;28;20235;-66
2020/12/05 01:27:35;;;;;;;24.52;16.23;;;;;;;5.48;90.66;96988.59;5071858;28;20184;-66
2020/12/05 01:30:01;;;;;;;20.98;15.63;;;;;;;5.52;90.68;96990.06;5071399;28;20185;-66
2020/12/05 01:32:27;;;;;;;19.17;14.82;;;;;;;5.63;90.03;96993.56;5071622;28;20259;-66
2020/12/05 01:34:54;;;;;;;18.17;13.65;;;;;;;5.60;89.47;97004.47;5071209;28;20258;-66
2020/12/05 01:37:20;;;;;;;24.02;15.57;;;;;;;5.63;89.27;97001.56;5071342;28;20209;-66
2020/12/05 01:39:46;;;;;;;17.00;13.98;;;;;;;5.58;89.79;97000.22;5071539;28;20205;-65
2020/12/05 01:42:13;;;;;;;19.77;13.73;;;;;;;5.55;89.96;96990.63;5071022;28;20196;-65
2020/12/05 01:44:39;;;;;;;17.00;11.80;;;;;;;5.58;89.58;97005.56;5074204;28;20678;-65
2020/12/05 01:47:06;;;;;;;10.77;8.90;;;;;;;5.68;88.14;97011.88;5074881;28;20211;-66
2020/12/05 01:49:32;;;;;;;13.82;11.02;;;;;;;5.62;87.30;97015.03;5075132;28;20212;-66
2020/12/05 01:52:01;;;;;;;13.50;9.13;;;;;;;5.69;87.13;97023.41;5074603;28;20204;-66
2020/12/05 01:54:27;;;;;;;9.52;8.43;;;;;;;5.63;86.66;97020.25;5074898;28;20201;-66
2020/12/05 01:56:57;;;;;;;14.57;10.10;;;;;;;5.69;86.85;97024.25;5075090;28;21097;-67
2020/12/05 01:59:25;;;;;;;13.82;10.38;;;;;;;5.72;86.84;97028.50;5074781;28;20627;-66
2020/12/05 02:01:53;;;;;;;11.00;8.80;;;;;;;5.69;86.93;97031.41;5074499;28;20220;-66
2020/12/05 02:04:19;;;;;;;11.93;9.45;;;;;;;5.71;86.65;97032.16;5074804;28;20204;-65
2020/12/05 02:07:05;;;;;;;11.50;9.35;;;;;;;5.74;86.81;97023.88;5074775;28;20225;-65
2020/12/05 02:09:34;;;;;;;9.13;8.05;;;;;;;6.09;85.16;97021.09;5074775;28;20633;-66
2020/12/05 02:12:07;;;;;;;9.13;7.90;;;;;;;5.98;84.76;97029.97;5074126;28;20239;-66
2020/12/05 02:14:37;;;;;;;9.85;7.45;;;;;;;5.86;84.63;97022.91;5077186;28;20638;-66
2020/12/05 02:17:05;;;;;;;9.25;7.40;;;;;;;5.91;85.14;97041.25;5073885;28;20196;-66
2020/12/05 02:19:43;;;;;;;8.52;7.30;;;;;;;5.84;84.95;97038.22;5074640;28;20184;-66
2020/12/05 02:22:13;;;;;;;10.57;7.05;;;;;;;5.92;84.13;97051.78;5074014;28;20189;-66
2020/12/05 02:24:45;;;;;;;8.70;7.10;;;;;;;6.00;83.54;97068.09;5075509;28;20292;-66
2020/12/05 02:27:11;;;;;;;8.52;7.13;;;;;;;5.99;83.93;97069.06;5094206;28;20206;-66
2020/12/05 02:29:38;;;;;;;11.32;7.35;;;;;;;5.96;83.86;97058.63;5094696;28;20227;-66
2020/12/05 02:32:05;;;;;;;8.57;7.22;;;;;;;6.00;83.96;97054.72;5093846;28;20231;-65
2020/12/05 02:34:31;;;;;;;10.10;6.72;;;;;;;5.97;84.03;97057.66;5094501;28;20703;-66
2020/12/05 02:37:03;;;;;;;8.40;7.60;;;;;;;5.97;84.07;97052.31;5094414;28;20673;-65
2020/12/05 02:39:30;;;;;;;7.47;6.57;;;;;;;5.84;83.83;97052.41;5094316;28;20615;-66
2020/12/05 02:41:57;;;;;;;8.38;7.05;;;;;;;6.20;82.10;97058.47;5090289;28;20213;-66
2020/12/05 02:44:24;;;;;;;7.85;6.90;;;;;;;6.19;82.09;97061.25;5076660;28;20302;-66
2020/12/05 02:46:51;;;;;;;7.50;5.65;;;;;;;6.05;82.63;97073.91;5074994;28;20227;-66
2020/12/05 02:49:18;;;;;;;6.55;5.70;;;;;;;5.81;83.79;97078.47;5073697;28;20292;-66
2020/12/05 02:51:44;;;;;;;10.20;6.50;;;;;;;5.85;84.28;97088.78;5073881;28;20646;-66
2020/12/05 02:54:10;;;;;;;6.70;5.63;;;;;;;5.85;83.90;97110.16;5073329;28;20224;-66
2020/12/05 02:56:36;;;;;;;6.72;5.80;;;;;;;5.81;84.24;97107.84;5072626;28;20205;-66
2020/12/05 02:59:04;;;;;;;7.35;5.25;;;;;;;5.84;84.57;97088.94;5073645;28;20267;-65
2020/12/05 03:01:31;;;;;;;7.88;5.85;;;;;;;6.02;83.02;97100.88;5073329;28;20203;-65
2020/12/05 03:03:57;;;;;;;7.85;6.43;;;;;;;5.96;83.34;97096.00;5073511;28;20219;-65
2020/12/05 03:06:23;;;;;;;6.35;5.60;;;;;;;5.81;84.13;97111.41;5073835;28;20296;-66
2020/12/05 03:08:49;;;;;;;6.70;5.60;;;;;;;6.06;83.20;97112.16;5073566;28;20645;-66
2020/12/05 03:11:15;;;;;;;7.63;6.22;;;;;;;6.00;82.83;97118.84;5073245;28;20607;-66
2020/12/05 03:13:42;;;;;;;8.45;6.60;;;;;;;5.91;83.52;97124.03;5073195;28;20259;-66
2020/12/05 03:16:09;;;;;;;6.63;5.97;;;;;;;5.91;83.93;97132.88;5092484;28;20202;-66
2020/12/05 03:18:36;;;;;;;7.10;6.40;;;;;;;5.80;84.16;97146.22;5093338;28;20202;-66
2020/12/05 03:21:02;;;;;;;8.13;7.00;;;;;;;5.89;84.04;97142.00;5093533;28;20188;-66
2020/12/05 03:23:28;;;;;;;11.10;8.20;;;;;;;5.77;84.37;97144.66;5093453;28;20188;-66
2020/12/05 03:25:56;;;;;;;10.85;8.70;;;;;;;5.80;84.06;97151.56;5093453;28;20291;-66
2020/12/05 03:28:24;;;;;;;10.50;7.85;;;;;;;5.77;84.61;97149.13;5093252;28;20191;-66
2020/12/05 03:30:50;;;;;;;8.52;7.72;;;;;;;5.77;84.61;97157.16;5093440;28;20229;-66
2020/12/05 03:33:18;;;;;;;10.07;7.40;;;;;;;5.75;84.85;97161.75;5091673;28;20273;-66
2020/12/05 03:35:44;;;;;;;8.20;6.82;;;;;;;5.70;85.36;97169.25;5073994;28;20195;-66
2020/12/05 03:38:10;;;;;;;8.30;6.03;;;;;;;5.73;85.33;97169.03;5073150;28;20220;-66
2020/12/05 03:40:37;;;;;;;6.05;5.45;;;;;;;5.74;84.98;97170.72;5072844;28;20211;-65
2020/12/05 03:43:04;;;;;;;6.93;6.07;;;;;;;5.82;84.71;97161.16;5072320;28;20275;-65
2020/12/05 03:45:31;;;;;;;7.60;6.15;;;;;;;5.74;84.81;97173.38;5073008;28;20516;-65
2020/12/05 03:47:57;;;;;;;6.43;5.45;;;;;;;5.64;85.67;97176.75;5072680;28;20205;-65
2020/12/05 03:50:24;;;;;;;6.05;5.38;;;;;;;5.81;84.80;97175.47;5072461;28;20235;-65
2020/12/05 03:52:51;;;;;;;6.22;5.00;;;;;;;5.75;85.11;97189.28;5072744;28;20303;-66
2020/12/05 03:55:17;;;;;;;8.43;5.80;;;;;;;5.78;85.18;97188.22;5088988;28;20282;-65
2020/12/05 03:57:43;;;;;;;7.05;5.70;;;;;;;5.75;85.40;97185.78;5092713;28;20204;-65
2020/12/05 04:00:09;;;;;;;6.40;5.63;;;;;;;5.68;86.68;97190.75;5092605;28;20330;-65
2020/12/05 04:02:36;;;;;;;7.00;5.72;;;;;;;5.71;87.45;97181.63;5092691;28;20267;-65
2020/12/05 04:05:02;;;;;;;6.28;5.68;;;;;;;5.72;87.47;97184.22;5092614;28;20249;-66
2020/12/05 04:07:29;;;;;;;6.00;5.40;;;;;;;5.77;88.02;97183.84;5092399;28;20294;-65
2020/12/05 04:09:55;;;;;;;7.45;5.93;;;;;;;5.88;86.73;97188.34;5093030;28;20649;-65
2020/12/05 04:12:21;;;;;;;6.70;5.60;;;;;;;5.80;87.34;97181.78;5084671;28;20331;-65
2020/12/05 04:14:47;;;;;;;7.50;5.63;;;;;;;5.79;87.61;97188.09;5072452;28;20184;-66
2020/12/05 04:17:13;;;;;;;8.15;6.85;;;;;;;5.72;87.52;97186.00;5072698;28;20200;-66
2020/12/05 04:19:39;;;;;;;6.72;5.50;;;;;;;5.71;88.44;97187.81;5072271;28;20283;-66
2020/12/05 04:22:06;;;;;;;8.90;5.88;;;;;;;5.76;88.26;97187.47;5071983;28;20277;-66
2020/12/05 04:24:33;;;;;;;6.65;5.85;;;;;;;5.83;88.01;97186.91;5083166;28;20199;-65
2020/12/05 04:26:59;;;;;;;6.20;5.60;;;;;;;5.88;87.79;97199.00;5092027;28;20226;-65
2020/12/05 04:29:25;;;;;;;7.38;5.80;;;;;;;5.87;87.52;97208.84;5092231;28;20196;-65
2020/12/05 04:31:51;;;;;;;6.50;5.20;;;;;;;5.78;88.74;97212.25;5092035;28;20295;-65
2020/12/05 04:34:18;;;;;;;7.32;5.20;;;;;;;5.89;88.65;97201.59;5092372;28;20239;-66
2020/12/05 04:36:44;;;;;;;6.85;6.07;;;;;;;5.87;88.02;97200.00;5092181;28;20184;-65
2020/12/05 04:39:10;;;;;;;5.95;5.30;;;;;;;5.81;88.26;97212.00;5092087;28;20200;-66
2020/12/05 04:41:37;;;;;;;5.93;5.30;;;;;;;5.80;88.42;97207.63;5084865;28;20212;-66
2020/12/05 04:44:03;;;;;;;5.75;5.13;;;;;;;5.79;88.24;97212.13;5071834;28;20196;-65
2020/12/05 04:46:32;;;;;;;6.07;5.38;;;;;;;5.79;88.40;97216.63;5071682;28;20204;-66
2020/12/05 04:49:00;;;;;;;6.30;4.90;;;;;;;5.76;88.55;97223.03;5071518;28;20207;-66
2020/12/05 04:51:30;;;;;;;5.82;5.10;;;;;;;5.75;88.75;97232.00;5071874;28;20195;-65
2020/12/05 04:53:59;;;;;;;6.40;4.75;;;;;;;5.75;89.01;97232.00;5071598;28;20257;-65
2020/12/05 04:56:35;;;;;;;5.93;5.20;;;;;;;5.84;88.44;97235.81;5072239;28;20911;-67
2020/12/05 04:59:05;;;;;;;4.97;4.47;;;;;;;5.77;88.27;97243.44;5071614;28;20658;-66
2020/12/05 05:01:35;;;;;;;6.20;5.20;;;;;;;5.78;88.46;97262.97;5084769;28;20188;-66
2020/12/05 05:04:01;;;;;;;7.00;5.35;;;;;;;5.90;87.93;97258.50;5091690;28;20220;-66
2020/12/05 05:06:27;;;;;;;4.80;4.35;;;;;;;5.81;87.69;97265.41;5092302;28;20682;-66
2020/12/05 05:08:54;;;;;;;5.70;4.97;;;;;;;5.76;88.14;97273.75;5092079;28;20200;-66
2020/12/05 05:11:20;;;;;;;5.88;4.95;;;;;;;5.67;88.61;97279.78;5089787;28;20253;-65
2020/12/05 05:13:56;;;;;;;5.75;4.53;;;;;;;5.69;89.11;97295.69;5057219;28;20215;-66
2020/12/05 05:16:26;;;;;;;5.90;5.20;;;;;;;5.70;89.42;97303.59;5071594;28;20257;-66
2020/12/05 05:18:52;;;;;;;5.82;5.18;;;;;;;5.71;88.55;97309.78;5072909;28;20196;-66
2020/12/05 05:21:36;;;;;;;8.75;5.70;;;;;;;5.70;88.47;97329.44;5075333;28;20216;-66
2020/12/05 05:24:10;;;;;;;6.32;5.25;;;;;;;5.74;89.33;97341.59;5075441;28;20192;-66
2020/12/05 05:26:37;;;;;;;6.63;5.63;;;;;;;5.68;89.30;97339.41;5075579;28;20189;-66
2020/12/05 05:29:03;;;;;;;5.65;5.15;;;;;;;5.79;88.98;97350.13;5075145;28;20254;-66
2020/12/05 05:31:44;;;;;;;7.60;6.47;;;;;;;5.80;89.07;97346.47;5075550;28;20189;-67
2020/12/05 05:34:19;;;;;;;6.60;5.90;;;;;;;5.77;89.14;97346.72;5075463;28;20205;-65
2020/12/05 05:36:45;;;;;;;5.65;5.00;;;;;;;5.82;89.20;97349.91;5075131;28;20195;-65
2020/12/05 05:39:13;;;;;;;7.65;5.93;;;;;;;5.84;88.89;97350.63;5074942;28;20208;-66
2020/12/05 05:41:40;;;;;;;8.13;5.50;;;;;;;5.81;89.46;97349.06;5074789;28;20261;-66
2020/12/05 05:44:08;;;;;;;7.60;6.20;;;;;;;5.83;88.92;97355.13;5074853;28;20180;-65
2020/12/05 05:46:40;;;;;;;6.72;5.50;;;;;;;5.94;87.69;97359.69;5074839;28;20220;-66
2020/12/05 05:49:06;;;;;;;8.68;5.70;;;;;;;5.79;88.01;97361.66;5075154;28;20181;-66
2020/12/05 05:51:44;;;;;;;6.75;5.97;;;;;;;5.71;89.01;97357.84;5075050;28;20254;-66
2020/12/05 05:54:19;;;;;;;5.85;4.85;;;;;;;5.75;88.83;97356.66;5076373;28;20207;-66
2020/12/05 05:57:04;;;;;;;6.10;5.50;;;;;;;5.78;88.34;97359.09;5074661;28;20295;-66
2020/12/05 05:59:32;;;;;;;6.90;5.93;;;;;;;5.73;88.60;97356.78;5074504;28;20323;-66
2020/12/05 06:02:00;;;;;;;8.52;7.45;;;;;;;5.72;88.83;97356.88;5074696;28;20207;-66
2020/12/05 06:04:31;;;;;;;6.43;5.70;;;;;;;5.75;88.78;97356.66;5074418;28;20203;-65
2020/12/05 06:07:02;;;;;;;6.07;5.20;;;;;;;5.74;88.95;97374.47;5074837;28;20603;-65
2020/12/05 06:09:34;;;;;;;6.85;6.03;;;;;;;5.94;87.73;97375.69;5074314;28;20626;-66
2020/12/05 06:12:04;;;;;;;6.95;5.68;;;;;;;5.88;87.93;97376.16;5073514;28;20228;-66
2020/12/05 06:14:31;;;;;;;5.88;5.28;;;;;;;5.80;88.55;97367.84;5074481;28;20282;-65
2020/12/05 06:16:59;;;;;;;7.43;5.63;;;;;;;5.57;89.35;97378.41;5074254;28;20201;-65
2020/12/05 06:19:26;;;;;;;6.53;5.68;;;;;;;5.39;90.47;97374.41;5074340;28;20207;-66
2020/12/05 06:21:54;;;;;;;8.10;7.18;;;;;;;5.30;91.14;97383.09;5074183;28;20246;-65
2020/12/05 06:24:30;;;;;;;6.95;5.40;;;;;;;5.27;91.77;97388.63;5088913;28;20275;-66
2020/12/05 06:27:01;;;;;;;7.85;6.47;;;;;;;5.22;91.56;97388.94;5094953;28;20521;-65
2020/12/05 06:29:29;;;;;;;7.80;6.70;;;;;;;5.13;92.28;97387.81;5094589;28;20628;-66
2020/12/05 06:31:56;;;;;;;6.03;5.22;;;;;;;5.00;92.84;97400.31;5094947;28;20214;-65
2020/12/05 06:34:40;;;;;;;20.70;7.55;;;;;;;4.91;93.45;97408.97;5094653;28;20210;-65
2020/12/05 06:37:08;;;;;;;7.65;6.95;;;;;;;4.95;93.26;97407.75;5093228;28;20184;-66
2020/12/05 06:39:34;;;;;;;7.03;6.30;;;;;;;5.01;93.11;97413.50;5094341;28;20184;-65
2020/12/05 06:42:00;;;;;;;7.40;6.63;;;;;;;4.99;93.16;97417.25;5089793;28;20199;-67
2020/12/05 06:44:40;;;;;;;8.50;6.72;;;;;;;4.96;93.30;97415.66;5073912;28;20285;-66
2020/12/05 06:47:10;;;;;;;7.75;6.95;;;;;;;5.02;92.97;97425.06;5073790;28;20193;-65
2020/12/05 06:49:51;;;;;;;9.63;7.25;;;;;;;5.00;92.83;97441.16;5074288;28;20230;-65
2020/12/05 06:52:36;;;;;;;8.25;7.28;;;;;;;5.02;92.92;97462.41;5074999;28;20907;-65
2020/12/05 06:55:15;;;;;;;9.13;7.32;;;;;;;5.26;91.88;97467.81;5093958;28;20284;-66
2020/12/05 06:57:43;;;;;;;9.40;7.28;;;;;;;5.13;91.65;97469.63;5093866;28;20206;-66
2020/12/05 07:00:17;;;;;;;10.18;7.53;;;;;;;5.17;92.13;97468.47;5093712;28;20319;-65
2020/12/05 07:02:54;;;;;;;9.50;7.10;;;;;;;5.10;92.27;97473.38;5094368;28;20183;-65
2020/12/05 07:05:27;;;;;;;9.40;8.05;;;;;;;5.12;92.53;97476.78;5093779;28;20251;-66
2020/12/05 07:07:54;;;;;;;9.25;7.25;;;;;;;5.17;92.63;97474.63;5093956;28;20203;-66
2020/12/05 07:10:22;;;;;;;11.18;7.38;;;;;;;5.29;90.93;97480.06;5093723;28;20186;-66
2020/12/05 07:12:48;;;;;;;8.82;7.60;;;;;;;5.28;91.04;97481.06;5087857;28;20637;-66
2020/12/05 07:15:22;;;;;;;9.20;7.57;;;;;;;5.31;90.47;97488.84;5073665;28;20187;-66
2020/12/05 07:17:49;;;;;;;8.10;6.47;;;;;;;5.24;90.47;97493.75;5073341;28;20518;-66
2020/12/05 07:20:15;;;;;;;10.13;7.60;;;;;;;5.26;90.83;97485.63;5076729;28;20292;-66
2020/12/05 07:22:44;;;;;;;8.35;7.05;;;;;;;5.28;90.79;97489.06;5073364;28;20530;-65
2020/12/05 07:25:10;;;;;;;9.38;7.15;;;;;;;5.33;90.69;97494.91;5072025;28;20207;-66
2020/12/05 07:27:36;;;;;;;9.40;7.63;;;;;;;5.29;90.28;97498.75;5072806;28;20212;-65
2020/12/05 07:30:03;;;;;;;10.80;7.53;;;;;;;5.33;90.44;97493.09;5073399;28;20184;-65
2020/12/05 07:32:32;;;;;;;11.73;8.50;;;;;;;5.24;90.48;97493.75;5072762;28;20220;-66
2020/12/05 07:34:58;;;;;;;8.35;7.22;;;;;;;5.14;90.82;97498.03;5072582;28;20262;-67
2020/12/05 07:37:26;;;;;;;9.20;7.63;;;;;;;5.07;91.53;97500.25;5072024;28;20276;-66
2020/12/05 07:39:54;;;;;;;10.77;7.97;;;;;;;5.01;91.85;97508.69;5072875;28;20204;-67
2020/12/05 07:42:21;;;;;;;12.68;8.10;;;;;;;5.03;91.67;97514.78;5072199;28;20207;-65
2020/12/05 07:44:47;;;;;;;8.80;6.75;;;;;;;5.04;91.46;97516.47;5072222;28;20223;-66
2020/12/05 07:47:18;;;;;;;9.80;7.32;;;;;;;4.94;91.45;97534.06;5072804;28;20216;-66
2020/12/05 07:49:51;;;;;;;7.78;6.97;;;;;;;4.84;91.85;97539.19;5077086;28;20225;-65
2020/12/05 07:52:20;;;;;;;10.38;7.97;;;;;;;4.84;92.37;97552.50;5092540;28;20199;-66
2020/12/05 07:54:51;;;;;;;11.20;7.97;;;;;;;4.79;92.27;97557.28;5091938;28;20561;-66
2020/12/05 07:57:18;;;;;;;9.15;7.25;;;;;;;4.84;92.37;97570.28;5093001;28;20188;-65
2020/12/05 07:59:44;;;;;;;12.07;8.73;;;;;;;4.84;92.14;97575.63;5092087;28;20733;-66
2020/12/05 08:02:17;;;;;;;10.50;7.47;;;;;;;4.87;91.83;97572.78;5073567;28;20197;-65
2020/12/05 08:04:52;;;;;;;9.45;7.45;;;;;;;4.84;91.16;97571.19;5072625;28;20185;-66
2020/12/05 08:07:37;;;;;;;8.60;7.10;;;;;;;4.92;91.39;97578.66;5072054;28;20205;-65
2020/12/05 08:10:09;;;;;;;12.00;8.57;;;;;;;4.95;90.89;97575.75;5072617;28;20193;-65
2020/12/05 08:13:02;;;;;;;7.55;6.78;;;;;;;5.12;90.05;97575.47;5072237;28;20634;-66
2020/12/05 08:15:33;;;;;;;7.35;5.93;;;;;;;5.05;88.83;97562.69;5072063;28;20199;-65
2020/12/05 08:18:02;;;;;;;7.75;6.95;;;;;;;5.05;89.20;97566.19;5072053;28;20305;-66
2020/12/05 08:20:29;;;;;;;7.80;7.00;;;;;;;5.11;88.50;97568.47;5072552;28;20585;-66
2020/12/05 08:22:55;;;;;;;7.43;6.28;;;;;;;5.15;88.56;97579.75;5072068;28;20192;-65
2020/12/05 08:25:22;;;;;;;12.05;10.90;;;;;;;5.10;88.71;97592.56;5072164;28;20200;-65
2020/12/05 08:27:49;;;;;;;9.25;6.88;;;;;;;5.24;88.32;97592.47;5071648;28;20207;-65
2020/12/05 08:30:17;;;;;;;9.40;7.95;;;;;;;5.31;87.46;97590.22;5072068;28;20199;-65
2020/12/05 08:32:44;;;;;;;8.68;7.88;;;;;;;5.25;87.15;97590.66;5081490;28;20961;-66
2020/12/05 08:35:13;;;;;;;9.88;8.30;;;;;;;5.30;87.64;97567.19;5073552;28;20975;-66
2020/12/05 08:37:43;;;;;;;9.95;8.63;;;;;;;5.25;87.29;97564.00;5071476;28;20191;-65
2020/12/05 08:40:16;;;;;;;12.68;8.15;;;;;;;5.04;87.72;97567.13;5072363;28;20693;-65
2020/12/05 08:42:46;;;;;;;7.68;6.95;;;;;;;5.00;87.90;97571.00;5071190;28;20288;-65
2020/12/05 08:45:17;;;;;;;12.93;8.60;;;;;;;5.14;87.67;97581.56;5071570;28;20193;-66
2020/12/05 08:47:44;;;;;;;9.35;8.35;;;;;;;5.03;87.64;97581.44;5071664;28;20473;-66
2020/12/05 08:50:22;;;;;;;9.00;6.00;;;;;;;5.04;86.45;97588.47;5071523;28;20286;-67
2020/12/05 08:52:52;;;;;;;9.65;7.28;;;;;;;5.06;87.30;97602.56;5071442;28;20205;-66
2020/12/05 08:55:21;;;;;;;8.38;7.40;;;;;;;5.22;85.96;97608.59;5082265;28;20628;-65
2020/12/05 08:57:54;;;;;;;6.95;5.80;;;;;;;5.30;85.19;97609.88;5095962;28;20290;-65
2020/12/05 09:00:21;;;;;;;7.80;5.90;;;;;;;5.48;84.62;97632.63;5095891;28;20640;-66
2020/12/05 09:02:47;;;;;;;7.20;5.25;;;;;;;5.52;84.44;97642.16;5096074;28;20210;-66
2020/12/05 09:05:13;;;;;;;8.13;6.72;;;;;;;5.74;83.84;97637.97;5095522;28;20230;-64
2020/12/05 09:07:40;;;;;;;12.57;9.98;;;;;;;5.72;84.38;97630.09;5095725;28;20207;-66
2020/12/05 09:10:15;;;;;;;5.95;5.38;;;;;;;5.44;83.22;97633.78;5095902;28;20207;-65
2020/12/05 09:12:42;;;;;;;8.95;5.85;;;;;;;5.40;83.92;97618.94;5095420;28;20201;-64
2020/12/05 09:15:08;;;;;;;9.55;6.85;;;;;;;5.36;84.05;97621.00;5076466;28;20220;-64
2020/12/05 09:17:35;;;;;;;7.43;6.72;;;;;;;5.35;84.31;97605.91;5075420;28;20196;-66
2020/12/05 09:20:16;;;;;;;20.20;17.55;;;;;;;5.48;83.35;97607.75;5075509;28;20340;-65
2020/12/05 09:22:47;;;;;;;6.10;5.50;;;;;;;5.41;82.79;97608.19;5075225;28;20223;-65
2020/12/05 09:25:25;;;;;;;6.18;5.57;;;;;;;5.40;82.35;97616.28;5075119;28;20212;-65
2020/12/05 09:27:51;;;;;;;8.00;6.90;;;;;;;5.58;81.73;97622.16;5078621;28;20283;-66
2020/12/05 09:30:17;;;;;;;5.85;5.00;;;;;;;5.55;81.58;97617.03;5075496;28;20201;-66
2020/12/05 09:32:46;;;;;;;7.65;5.63;;;;;;;5.62;81.58;97615.66;5086141;28;20208;-66
2020/12/05 09:35:14;;;;;;;8.20;6.20;;;;;;;5.62;82.15;97618.31;5074967;28;20291;-67
2020/12/05 09:37:40;;;;;;;7.30;6.05;;;;;;;5.73;81.85;97630.94;5075273;28;20208;-67
2020/12/05 09:40:08;;;;;;;6.75;5.95;;;;;;;5.72;82.03;97624.75;5087466;28;20295;-66
2020/12/05 09:42:34;;;;;;;7.20;5.95;;;;;;;5.71;81.62;97630.19;5095251;28;20693;-66
2020/12/05 09:45:00;;;;;;;7.90;6.63;;;;;;;5.80;80.60;97642.91;5081730;28;20220;-66
2020/12/05 09:47:26;;;;;;;8.73;6.25;;;;;;;5.81;79.87;97647.25;5080719;28;20707;-66
2020/12/05 09:49:53;;;;;;;12.10;8.70;;;;;;;5.83;79.23;97635.53;5095396;28;20702;-65
2020/12/05 09:52:19;;;;;;;7.05;6.35;;;;;;;5.88;79.04;97616.50;5088576;28;20195;-65
2020/12/05 09:54:46;;;;;;;32.97;18.48;;;;;;;5.91;78.46;97599.41;5085171;28;20212;-65
2020/12/05 09:57:12;;;;;;;8.77;5.65;;;;;;;5.94;78.08;97589.38;5074767;28;20193;-66
2020/12/05 09:59:38;;;;;;;5.60;5.10;;;;;;;6.00;78.17;97596.97;5093798;28;20276;-65
2020/12/05 10:02:05;;;;;;;5.72;4.63;;;;;;;5.99;76.79;97608.63;5090487;28;20641;-65
2020/12/05 10:04:32;;;;;;;6.70;5.57;;;;;;;5.98;76.83;97600.72;5081786;28;20272;-67
2020/12/05 10:06:59;;;;;;;10.55;6.10;;;;;;;6.09;77.47;97599.94;5074082;28;20291;-65
2020/12/05 10:09:25;;;;;;;7.07;5.50;;;;;;;6.21;76.54;97607.06;5074172;28;20280;-66
2020/12/05 10:11:52;;;;;;;6.30;5.00;;;;;;;6.33;76.22;97613.34;5074576;28;20552;-66
2020/12/05 10:14:18;;;;;;;21.35;13.82;;;;;;;6.40;75.82;97604.78;5073394;28;20314;-66
2020/12/05 10:16:44;;;;;;;6.40;5.55;;;;;;;6.48;74.24;97610.41;5074179;28;20187;-66
2020/12/05 10:19:10;;;;;;;6.90;5.75;;;;;;;6.53;73.40;97599.38;5092782;28;20630;-66
2020/12/05 10:21:36;;;;;;;4.90;4.50;;;;;;;6.93;70.66;97592.91;5088853;28;20368;-66
2020/12/05 10:24:04;;;;;;;12.77;8.05;;;;;;;6.96;70.01;97600.69;5074054;28;20279;-66
2020/12/05 10:26:30;;;;;;;5.78;4.75;;;;;;;7.06;69.29;97607.91;5094504;28;20208;-66
2020/12/05 10:28:56;;;;;;;5.95;5.20;;;;;;;6.99;70.21;97608.50;5083816;28;20200;-67
2020/12/05 10:31:22;;;;;;;6.25;5.25;;;;;;;7.02;70.11;97602.91;5079550;28;21079;-65
2020/12/05 10:33:48;;;;;;;5.85;5.10;;;;;;;7.15;69.14;97613.56;5089440;28;20261;-66
2020/12/05 10:36:18;;;;;;;4.40;4.00;;;;;;;7.36;67.45;97621.75;5075769;28;20292;-66
2020/12/05 10:38:45;;;;;;;7.50;4.90;;;;;;;7.23;68.33;97616.47;5073903;28;20721;-66
2020/12/05 10:41:12;;;;;;;7.13;4.95;;;;;;;7.20;68.80;97624.75;5073795;28;20200;-66
2020/12/05 10:43:38;;;;;;;5.05;4.65;;;;;;;7.19;67.24;97626.59;5084934;28;20183;-67
2020/12/05 10:46:05;;;;;;;4.22;3.67;;;;;;;7.37;65.24;97627.00;5094473;28;20206;-66
2020/12/05 10:48:31;;;;;;;4.03;3.65;;;;;;;7.21;65.80;97618.41;5083202;28;20192;-65
2020/12/05 10:50:58;;;;;;;4.38;3.72;;;;;;;7.35;65.49;97622.72;5073925;28;20350;-65
2020/12/05 10:53:24;;;;;;;3.90;3.55;;;;;;;7.41;64.57;97623.09;5091323;28;20242;-66
2020/12/05 10:55:51;;;;;;;5.20;4.30;;;;;;;7.46;65.14;97628.09;5087062;28;20665;-65
2020/12/05 10:58:18;;;;;;;4.68;4.25;;;;;;;7.52;65.09;97608.91;5074781;28;20196;-66
2020/12/05 11:00:44;;;;;;;5.10;4.35;;;;;;;7.56;64.74;97626.44;5073234;28;20247;-66
2020/12/05 11:03:11;;;;;;;5.63;4.88;;;;;;;7.44;65.91;97630.03;5077180;28;20237;-67
2020/12/05 11:05:37;;;;;;;6.13;5.15;;;;;;;7.52;66.72;97646.38;5093953;28;20185;-66
2020/12/05 11:08:03;;;;;;;6.45;5.20;;;;;;;7.86;66.15;97646.44;5080270;28;20265;-66
2020/12/05 11:10:30;;;;;;;5.13;4.55;;;;;;;8.08;64.50;97640.25;5073102;28;20268;-66
2020/12/05 11:12:56;;;;;;;9.20;5.32;;;;;;;8.30;62.89;97653.66;5073185;28;20268;-65
2020/12/05 11:15:24;;;;;;;5.18;4.68;;;;;;;8.16;63.52;97659.25;5072417;28;20207;-66
2020/12/05 11:17:50;;;;;;;5.18;4.78;;;;;;;8.29;63.07;97643.06;5080286;28;20200;-65
2020/12/05 11:20:19;;;;;;;4.20;3.80;;;;;;;8.24;62.51;97650.63;5093135;28;20289;-65
2020/12/05 11:22:45;;;;;;;4.88;4.47;;;;;;;8.17;63.75;97670.84;5080454;28;20199;-65
2020/12/05 11:25:13;;;;;;;5.97;4.15;;;;;;;8.22;63.91;97663.28;5079913;28;20191;-64
2020/12/05 11:27:39;;;;;;;9.63;4.55;;;;;;;8.12;64.44;97658.66;5092764;28;20252;-65
2020/12/05 11:30:05;;;;;;;4.70;4.22;;;;;;;8.13;63.68;97651.47;5092154;28;20597;-66
2020/12/05 11:32:32;;;;;;;5.15;4.65;;;;;;;8.11;64.20;97648.91;5092860;28;20206;-66
2020/12/05 11:34:59;;;;;;;5.20;4.70;;;;;;;8.01;64.11;97655.13;5093034;28;20251;-66
2020/12/05 11:37:25;;;;;;;6.35;5.50;;;;;;;8.21;64.27;97656.22;5078222;28;20198;-65
2020/12/05 11:39:52;;;;;;;7.40;5.20;;;;;;;8.36;63.31;97645.13;5072582;28;20626;-66
2020/12/05 11:42:18;;;;;;;7.88;6.63;;;;;;;8.52;62.97;97633.19;5072575;28;20240;-66
2020/12/05 11:44:44;;;;;;;3.75;3.35;;;;;;;8.17;62.87;97636.84;5072277;28;20197;-65